Farrow Terrace, South Carolina
Current Conditions -  °F | °C
As of 3:03 PM on Sunday 23 Nov 2014 (Local Time) from KCUB Reporting Station
Light Rain Light Rain  
Wind Chill: 62°   Ceiling: 600
Heat Index: 62°   Visibility: 2mi
Dew Point: 60°   Wind: 5mph
Humidity: 93%   Direction: NA
Pressure: 29.9"   Gusts: NA
Location:  34.1179°N, 81.0612°W
Report Text: KCUB 232003Z AUTO VRB04KT 2SM -RA BR BKN006 OVC013 17/16 A2990 RMK AO2 CIG 004V011 P0001 T01670156
Loading
Personal Weather Stations






























Interactive Weather Map New forecast layout! Learn more

10-Day Weather Forecast

Advertisements
Track Severe Weather on mobile